Grifon 5 — UGMI — position and weather

sailwx.info

Track history (hours):
 
Tides and Currents Weather Stations Pressure Air Temp Water Temp Dewpoint Dewpoint Depression Visibility Wind Speed Wind Dir Waves Ship Positions

Grifon 5

Last reported at 2014-Oct-01 05:25 UTC. Time now 2014-Oct-02 02:21 UTC.
Position N 59°53' E 030°13'.

Length 25 m.

MMSI: 273311070.

Date/timePositionNaut miles runAvg speedWind from/ knotsBaromVisibWave heightAir tempDewpointWater temp
2014-Oct-01 05:25N 59°53' E 030°13'1 1.0
2014-Oct-01 04:33N 59°53' E 030°11'0 0.0
2014-Sep-30 08:18N 59°53' E 030°11'1 0.8
2014-Sep-30 07:32N 59°53' E 030°12'1 0.3
2014-Sep-30 04:12N 59°53' E 030°14'2 1.4
2014-Sep-30 03:07N 59°53' E 030°11'1 0.1
2014-Sep-29 09:26N 59°53' E 030°14'1 0.1
2014-Sep-28 14:24N 59°53' E 030°11'1 0.8
2014-Sep-28 13:31N 59°53' E 030°10'2 0.2
2014-Sep-28 07:07N 59°53' E 030°13'1 0.1
2014-Sep-28 03:10N 59°53' E 030°13'0 0.1
2014-Sep-28 02:30N 59°53' E 030°12'1 0.1
2014-Sep-27 14:28N 59°53' E 030°13'2 0.2
2014-Sep-27 04:24N 59°53' E 030°10'1 0.5
2014-Sep-27 03:04N 59°53' E 030°11'0 0.0
2014-Sep-26 17:28N 59°53' E 030°11'0 0.0
2014-Sep-26 13:19N 59°53' E 030°11'2 0.1
2014-Sep-25 17:10N 59°54' E 030°14'0 0.3
2014-Sep-25 16:33N 59°54' E 030°14'1 0.1
2014-Sep-25 07:24N 59°53' E 030°13'1 0.6
2014-Sep-25 06:33N 59°53' E 030°14'0 0.0
2014-Sep-25 05:32N 59°53' E 030°14'0 0.0
2014-Sep-25 04:33N 59°53' E 030°14'0 0.0
2014-Sep-25 03:31N 59°53' E 030°14'1 1.0
2014-Sep-25 02:30N 59°53' E 030°12'1 0.7
2014-Sep-25 01:08N 59°53' E 030°14'1 0.1
2014-Sep-24 15:21N 59°53' E 030°13'1 0.1
2014-Sep-24 06:33N 59°53' E 030°14'1 0.1
2014-Sep-24 02:19N 59°53' E 030°13'1 0.7
2014-Sep-24 01:33N 59°53' E 030°14'1 0.2
2014-Sep-23 19:22N 59°53' E 030°12'1 0.3
2014-Sep-23 15:22N 59°53' E 030°14'0 0.0
2014-Sep-23 14:25N 59°53' E 030°14'0 0.0
2014-Sep-23 13:33N 59°53' E 030°14'0 0.0
2014-Sep-23 12:33N 59°53' E 030°14'0 0.0
2014-Sep-23 11:33N 59°53' E 030°14'0 0.0
2014-Sep-23 10:33N 59°53' E 030°14'0 0.0
2014-Sep-23 00:33N 59°53' E 030°14'0 0.0
2014-Sep-22 20:10N 59°53' E 030°14'0 0.0
2014-Sep-22 16:18N 59°53' E 030°14'2 0.5
2014-Sep-22 13:32N 59°53' E 030°11'2 0.2
2014-Sep-22 03:32N 59°53' E 030°14'0 0.0
2014-Sep-22 00:11N 59°53' E 030°14'0 0.0
2014-Sep-21 23:33N 59°53' E 030°14'0 0.0
2014-Sep-21 22:28N 59°53' E 030°14'0 0.0
2014-Sep-21 20:20N 59°53' E 030°14'0 0.0
2014-Sep-21 19:30N 59°53' E 030°14'0 0.0
2014-Sep-21 17:27N 59°53' E 030°14'0 0.0
2014-Sep-21 15:28N 59°53' E 030°14'0 0.0
2014-Sep-21 14:32N 59°53' E 030°14'0 0.0
2014-Sep-21 13:19N 59°53' E 030°14'0 0.0
2014-Sep-21 11:27N 59°53' E 030°14'0 0.0
2014-Sep-21 10:32N 59°53' E 030°14'0 0.0
2014-Sep-21 09:33N 59°53' E 030°14'0 0.0
2014-Sep-21 08:33N 59°53' E 030°14'0 0.0
2014-Sep-21 07:34N 59°53' E 030°14'0 0.0
2014-Sep-21 06:32N 59°53' E 030°14'  
Track history (hours):
 
Tides and Currents Weather Stations Pressure Air Temp Water Temp Dewpoint Dewpoint Depression Visibility Wind Speed Wind Dir Waves Ship Positions

Grifon 5

Last reported at 2014-Oct-01 05:25 UTC. Time now 2014-Oct-02 02:21 UTC.
Position N 59°53' E 030°13'.

Length 25 m.

MMSI: 273311070.

Date/timePositionNaut miles runAvg speedWind from/ knotsBaromVisibWave heightAir tempDewpointWater temp
2014-Oct-01 05:25N 59°53' E 030°13'1 1.0
2014-Oct-01 04:33N 59°53' E 030°11'0 0.0
2014-Sep-30 08:18N 59°53' E 030°11'1 0.8
2014-Sep-30 07:32N 59°53' E 030°12'1 0.3
2014-Sep-30 04:12N 59°53' E 030°14'2 1.4
2014-Sep-30 03:07N 59°53' E 030°11'1 0.1
2014-Sep-29 09:26N 59°53' E 030°14'1 0.1
2014-Sep-28 14:24N 59°53' E 030°11'1 0.8
2014-Sep-28 13:31N 59°53' E 030°10'2 0.2
2014-Sep-28 07:07N 59°53' E 030°13'1 0.1
2014-Sep-28 03:10N 59°53' E 030°13'0 0.1
2014-Sep-28 02:30N 59°53' E 030°12'1 0.1
2014-Sep-27 14:28N 59°53' E 030°13'2 0.2
2014-Sep-27 04:24N 59°53' E 030°10'1 0.5
2014-Sep-27 03:04N 59°53' E 030°11'0 0.0
2014-Sep-26 17:28N 59°53' E 030°11'0 0.0
2014-Sep-26 13:19N 59°53' E 030°11'2 0.1
2014-Sep-25 17:10N 59°54' E 030°14'0 0.3
2014-Sep-25 16:33N 59°54' E 030°14'1 0.1
2014-Sep-25 07:24N 59°53' E 030°13'1 0.6
2014-Sep-25 06:33N 59°53' E 030°14'0 0.0
2014-Sep-25 05:32N 59°53' E 030°14'0 0.0
2014-Sep-25 04:33N 59°53' E 030°14'0 0.0
2014-Sep-25 03:31N 59°53' E 030°14'1 1.0
2014-Sep-25 02:30N 59°53' E 030°12'1 0.7
2014-Sep-25 01:08N 59°53' E 030°14'1 0.1
2014-Sep-24 15:21N 59°53' E 030°13'1 0.1
2014-Sep-24 06:33N 59°53' E 030°14'1 0.1
2014-Sep-24 02:19N 59°53' E 030°13'1 0.7
2014-Sep-24 01:33N 59°53' E 030°14'1 0.2
2014-Sep-23 19:22N 59°53' E 030°12'1 0.3
2014-Sep-23 15:22N 59°53' E 030°14'0 0.0
2014-Sep-23 14:25N 59°53' E 030°14'0 0.0
2014-Sep-23 13:33N 59°53' E 030°14'0 0.0
2014-Sep-23 12:33N 59°53' E 030°14'0 0.0
2014-Sep-23 11:33N 59°53' E 030°14'0 0.0
2014-Sep-23 10:33N 59°53' E 030°14'0 0.0
2014-Sep-23 00:33N 59°53' E 030°14'0 0.0
2014-Sep-22 20:10N 59°53' E 030°14'0 0.0
2014-Sep-22 16:18N 59°53' E 030°14'2 0.5
2014-Sep-22 13:32N 59°53' E 030°11'2 0.2
2014-Sep-22 03:32N 59°53' E 030°14'0 0.0
2014-Sep-22 00:11N 59°53' E 030°14'0 0.0
2014-Sep-21 23:33N 59°53' E 030°14'0 0.0
2014-Sep-21 22:28N 59°53' E 030°14'0 0.0
2014-Sep-21 20:20N 59°53' E 030°14'0 0.0
2014-Sep-21 19:30N 59°53' E 030°14'0 0.0
2014-Sep-21 17:27N 59°53' E 030°14'0 0.0
2014-Sep-21 15:28N 59°53' E 030°14'0 0.0
2014-Sep-21 14:32N 59°53' E 030°14'0 0.0
2014-Sep-21 13:19N 59°53' E 030°14'0 0.0
2014-Sep-21 11:27N 59°53' E 030°14'0 0.0
2014-Sep-21 10:32N 59°53' E 030°14'0 0.0
2014-Sep-21 09:33N 59°53' E 030°14'0 0.0
2014-Sep-21 08:33N 59°53' E 030°14'0 0.0
2014-Sep-21 07:34N 59°53' E 030°14'0 0.0
2014-Sep-21 06:32N 59°53' E 030°14'  

Dump ship's entire track history